Terminal Aerodrome Forecast
Issued by NWS Binghamton, NY

Home | Current Version | Previous Version | Text Only | Print | Product List | Glossary On
Versions: 1 2 3 4 5 6 7 8 9 10 11 12 13 14 15 16 17 18 19 20 21
525
FTUS41 KBGM 281135
TAFBGM
TAF
KBGM 281135Z 2812/2912 23004KT P6SM BKN250
     FM281900 VRB03KT P6SM SCT050 BKN120
      TEMPO 2822/2902 5SM -TSRA BKN050CB
     FM290500 00000KT P6SM SCT040 BKN080
     FM291000 VRB03KT P6SM -SHRA BKN035 OVC100=

USA.gov is the U.S. government's official web portal to all federal, state and local government web resources and services.